Se encontraron 9506 coincidencias

por Diecha
Lun Feb 17, 2020 10:06 pm
Foro: Seguimientos Meteorológicos
Tema: 11 a 19/2 - Nuevo ingreso de aire tropical C y N
Respuestas: 590
Vistas: 11567

Re: 11 a 19/2 - Nuevo ingreso de aire tropical C y N

- Aeroparque 21:45 hs: SABE 180045Z 07008KT 6000 -RA SCT011 OVC070 23/21 Q1001

Imagen
por Diecha
Lun Feb 17, 2020 9:56 pm
Foro: Seguimientos Meteorológicos
Tema: 11 a 19/2 - Nuevo ingreso de aire tropical C y N
Respuestas: 590
Vistas: 11567

Re: 11 a 19/2 - Nuevo ingreso de aire tropical C y N

- Ezeiza 21:39 hs: SAEZ 180039Z 01010G22KT 5000 RA SCT038 OVC070 21/21 Q1004 (ráfaga de 41 Km/h)

Imagen
por Diecha
Lun Feb 17, 2020 9:32 pm
Foro: Seguimientos Meteorológicos
Tema: 11 a 19/2 - Nuevo ingreso de aire tropical C y N
Respuestas: 590
Vistas: 11567

Re: 11 a 19/2 - Nuevo ingreso de aire tropical C y N

http://img.gustfront.com.ar/rep/2002/5d44ee6f2c3f71b73125876103c8f6c442e0b4ff596ad431119c315d3310bfbf.jpg http://img.gustfront.com.ar/rep/2002/719_5d44ee6f2c3f71b73125876103c8f6c471353226910853ba4403f9df31a4da32.gif http://img.gustfront.com.ar/rep/2002/5d44ee6f2c3f71b73125876103c8f6c4e4741b5c384007...
por Diecha
Lun Feb 17, 2020 8:54 pm
Foro: Seguimientos Meteorológicos
Tema: 11 a 19/2 - Nuevo ingreso de aire tropical C y N
Respuestas: 590
Vistas: 11567

Re: 11 a 19/2 - Nuevo ingreso de aire tropical C y N

Rosario: http://img.gustfront.com.ar/rep/2002/5d44ee6f2c3f71b73125876103c8f6c491e39a322314ef5e01efb8bc82b8dfdb.jpg www.instagram.com/p/B8r6-ODAtkT/ https://www.instagram.com/p/B8r8t1Il97B/ Mina Clavero: http://img.gustfront.com.ar/rep/2002/5d44ee6f2c3f71b73125876103c8f6c4bb87f81682cb16d52e5a655c1cb8...
por Diecha
Lun Feb 17, 2020 8:43 pm
Foro: Seguimientos Meteorológicos
Tema: 11 a 19/2 - Nuevo ingreso de aire tropical C y N
Respuestas: 590
Vistas: 11567

Re: 11 a 19/2 - Nuevo ingreso de aire tropical C y N

- Córdoba 20 hs: SACO 172300Z 20013KT 9000 -TSRA BKN015 FEW040CB BKN050 21/20 Q1006 NOSIG RMK CB OBS TO W E - Río Cuarto 20 hs: SAOC 172300Z 20010KT 9999 FEW025 SCT100 BKN200 20/19 Q1007 http://img.gustfront.com.ar/rep/2002/986_5d44ee6f2c3f71b73125876103c8f6c468f07d1bb54dfccec83248077a8a46ad.gif
por Diecha
Lun Feb 17, 2020 8:38 pm
Foro: Seguimientos Meteorológicos
Tema: 11 a 19/2 - Nuevo ingreso de aire tropical C y N
Respuestas: 590
Vistas: 11567

Re: 11 a 19/2 - Nuevo ingreso de aire tropical C y N

- Paraná 20:20 hs: SAAP 172320Z 16024G36KT 9999 SCT025 FEW050CB BKN100 27/22 Q1004 (ráfaga de 67 Km/h)
- Sauce Viejo 20:20 hs: SAAV 172320Z 21021KT 2000 +RA SCT028 OVC040 25/20 Q1003

Imagen